Sunday, February 01, 2015
04:08 UTC
  |  Log In   |  Register Free
Airport Search:

Yellowstone Regional Airport
(KCOD)

Yellowstone Regional Airport Diagram
No Airport Diagram Available

FAA data valid effective January 08, 2015 - March 05, 2015 (unless otherwise noted).

 
 
 
 
 
 
 
 
 
 
 
 
 
 

Current Aviation Weather for Yellowstone Regional Airport (KCOD)

The most recent METAR observation for KCOD was updated at: 0308
METAR Summary (Translated METAR)
KCOD
010255Z 01013G17KT 10SM BKN010 OVC017 M07/M08 A3011 RMK AO1 52027
KPOY
010255Z AUTO 34017G25KT 10SM CLR M08/M10 A3008 RMK AO2
(23.1 nm NE from KCOD)
KU68
010255Z AUTO 05017G25KT 10SM SCT075 SCT110 M07/M09 A3014 RMK AO2 PWINO
(34.1 nm NE from KCOD)
TAF Summary (Translated TAF)
KCOD
311732Z 3118/0118 02008KT P6SM SCT100 FM311900 01012G18KT P6SM SCT030 FM312300 36010G15KT P6SM VCSH OVC015 FM010700 34006KT P6SM SCT015 OVC030 FM011600 VRB05KT P6SM SCT035 AMD LTD TO CLD VIS AND WIND
  Airport Weather Conditions for KCOD

 Current Weather at COD
19° F
Overcast
North winds at 15.0 mph
COD NOAA Radar

Pressure: 30.11 in
Humidity: 93%
Wind: from the North at 15.0 gusting to 19.6 MPH (13 gusting to 17 KT)
Dew Point: 17.6°F
Visibility: 10.00 mi


Airport Weather Forecast for KCOD

Translated METAR and TAF for KCOD
Translated METAR for KCOD (0408 UTC 01 February 2015)
found at http://aviationweather.gov/adds/metars/
 
METAR text: KCOD 010355Z 01012KT 10SM OVC010 M08/M09 A3012 RMK AO1
Conditions at: KCOD (CODY , WY, US) observed 0355 UTC 01 February 2015
Temperature: -8.0°C (18°F)
Dewpoint: -9.0°C (16°F) [RH = 92%]
Pressure (altimeter): 30.12 inches Hg (1020.1 mb)
Winds: from the N (10 degrees) at 14 MPH (12 knots; 6.2 m/s)
Visibility: 10 or more miles (16+ km)
Ceiling: 1000 feet AGL
Clouds: overcast cloud deck at 1000 feet AGL
Weather: no significant weather observed at this time
Translated TAF for KCOD
Forecast for: KCOD (CODY , WY, US)
TAF Text: KCOD 312320Z 0100/0124 01013G21KT 5SM -SN OVC013
Forecast period: 0000 to 0400 UTC 01 February 2015
Forecast type: FROM: standard forecast or significant change
Winds: from the N (10 degrees) at 15 MPH (13 knots; 6.8 m/s)
gusting to 24 MPH (21 knots; 10.9 m/s)
Visibility: 5 miles (8 km)
Ceiling: 1300 feet AGL
Clouds: overcast cloud deck at 1300 feet AGL
Weather: -SN  (light snow)
TAF Text: FM010400 36009KT P6SM OVC020
Forecast period: 0400 to 0700 UTC 01 February 2015
Forecast type: FROM: standard forecast or significant change
Winds: from the N (360 degrees) at 10 MPH (9 knots; 4.7 m/s)
Visibility: 6 or more miles (10+ km)
Ceiling: 2000 feet AGL
Clouds: overcast cloud deck at 2000 feet AGL
Weather: no significant weather forecast for this period
TAF Text: FM010700 34006KT P6SM SCT015 OVC030
Forecast period: 0700 to 1600 UTC 01 February 2015
Forecast type: FROM: standard forecast or significant change
Winds: from the NNW (340 degrees) at 7 MPH (6 knots; 3.1 m/s)
Visibility: 6 or more miles (10+ km)
Ceiling: 3000 feet AGL
Clouds: scattered clouds at 1500 feet AGL
overcast cloud deck at 3000 feet AGL
Weather: no significant weather forecast for this period
TAF Text: FM011600 VRB05KT P6SM SCT035
Forecast period: 1600 to 2100 UTC 01 February 2015
Forecast type: FROM: standard forecast or significant change
Winds: variable direction winds at 6 MPH (5 knots; 2.6 m/s)
Visibility: 6 or more miles (10+ km)
Clouds: scattered clouds at 3500 feet AGL
Weather: no significant weather forecast for this period
TAF Text: FM012100 18007KT P6SM BKN250 AMD LTD TO CLD VIS AND WIND
Forecast period: 2100 UTC 01 February 2015 to 0000 UTC 02 February 2015
Forecast type: FROM: standard forecast or significant change
Winds: from the S (180 degrees) at 8 MPH (7 knots; 3.6 m/s)
Visibility: 6 or more miles (10+ km)
Ceiling: 25000 feet AGL
Clouds: broken clouds at 25000 feet AGL
Weather: no significant weather forecast for this period

Find All Airport Services Find A Hotel Find A Rental Car Find A Golf Course Find A Restaurant $100 Hamburger



FBO's on the Field
FBO Company Facility Photos Services Transportation Aviation Fuel Prices: Prices include tax
Catering Weather Repair Courtesy Rental Type 100LL JetA JetA+ MOGAS 8087
 
Choice Aviation, LLC

This FBO has not yet been rated
FS:Avfuel
Last Updated: Jan-20
Login to update fuel prices
SS:
Contact Choice Aviation, LLCMore FBO Information
 
Add another FBO Facility Photos Catering Weather Repair Courtesy Rental Type 100LL JetA JetA+ MOGAS 8087
Services Transportation Aviation Fuel Prices: Prices include tax


model-print
model-print
model-print
model-print